Time;durP1;ratioP1;P1;durP2;ratioP2;P2;SDS_P1;SDS_P2;PMS_P1;PMS_P2;Temp;Humidity;BMP_temperature;BMP_pressure;BME280_temperature;BME280_humidity;BME280_pressure;Samples;Min_cycle;Max_cycle;Signal;HPM_P1;HPM_P2
2022/01/08 12:17:57;;;;;;;27.58;10.15;;;20.00;51.20;;;;;;1021488;27;20688;-70
2022/01/08 12:18:53;;;;;;;24.38;10.10;;;19.90;54.70;;;;;;1040826;28;20031;-70
2022/01/08 12:19:31;;;;;;;30.83;10.73;;;19.90;54.30;;;;;;1006472;28;20115;-71
2022/01/08 12:20:03;;;;;;;27.48;9.25;;;19.80;53.90;;;;;;1042467;28;20029;-70
2022/01/08 12:20:54;;;;;;;21.95;10.38;;;19.90;53.80;;;;;;1042549;28;20399;-71
2022/01/08 12:21:38;;;;;;;;;;;19.90;53.60;;;;;;1043198;28;20383;-71
2022/01/08 12:22:18;;;;;;;21.45;10.00;;;19.90;53.40;;;;;;1042515;28;19908;-71
2022/01/08 12:22:49;;;;;;;23.48;9.25;;;19.90;53.20;;;;;;1042685;28;20132;-71
2022/01/08 12:23:30;;;;;;;17.08;9.35;;;19.90;53.00;;;;;;1042711;28;20126;-70
2022/01/08 12:24:25;;;;;;;18.10;8.90;;;19.90;53.00;;;;;;1042500;28;20114;-71
2022/01/08 12:24:58;;;;;;;21.50;11.20;;;19.90;52.90;;;;;;1042651;28;20048;-71
2022/01/08 12:25:40;;;;;;;24.48;10.32;;;19.90;52.80;;;;;;1042622;28;20092;-71
2022/01/08 12:26:37;;;;;;;26.02;11.27;;;19.90;52.80;;;;;;1030028;28;20508;-70
2022/01/08 12:27:26;;;;;;;22.83;9.43;;;19.90;52.70;;;;;;1042352;28;20376;-70
2022/01/08 12:27:57;;;;;;;29.65;11.02;;;20.00;52.60;;;;;;1037063;28;20037;-70
2022/01/08 12:28:39;;;;;;;22.77;9.43;;;20.00;52.60;;;;;;1042470;28;20052;-70
2022/01/08 12:29:10;;;;;;;22.23;10.00;;;20.00;52.50;;;;;;1042546;28;20079;-71
2022/01/08 12:29:42;;;;;;;18.25;8.77;;;20.00;52.50;;;;;;1042279;28;20486;-71
2022/01/08 12:30:15;;;;;;;31.05;9.20;;;19.90;52.30;;;;;;1042498;28;20034;-71
2022/01/08 12:30:46;;;;;;;24.58;10.13;;;20.00;52.30;;;;;;1042538;28;20026;-71
2022/01/08 12:31:44;;;;;;;17.38;8.80;;;20.00;52.20;;;;;;1042565;28;20431;-72
2022/01/08 12:32:36;;;;;;;21.60;9.23;;;20.00;52.20;;;;;;1042501;28;20055;-71
2022/01/08 12:33:18;;;;;;;22.45;8.55;;;20.00;52.10;;;;;;1042580;28;20033;-71
2022/01/08 12:34:28;;;;;;;19.92;7.95;;;20.00;52.00;;;;;;1042649;28;20017;-71
2022/01/08 12:35:20;;;;;;;17.80;8.50;;;20.00;51.90;;;;;;1042503;28;20021;-71
2022/01/08 12:35:57;;;;;;;26.25;9.60;;;20.00;51.90;;;;;;1042545;28;20025;-71
2022/01/08 12:36:31;;;;;;;20.55;8.77;;;20.00;52.40;;;;;;1042605;28;20128;-72
2022/01/08 12:37:13;;;;;;;23.55;8.23;;;20.00;51.80;;;;;;1042491;28;20051;-70
2022/01/08 12:37:46;;;;;;;15.73;7.75;;;20.00;51.80;;;;;;1042421;28;20108;-71
2022/01/08 12:38:28;;;;;;;23.40;9.10;;;20.00;51.80;;;;;;1042645;28;20104;-72
2022/01/08 12:39:03;;;;;;;22.70;10.60;;;20.00;51.80;;;;;;1042583;28;20021;-70
2022/01/08 12:39:43;;;;;;;15.07;8.85;;;20.00;51.70;;;;;;1042451;28;20040;-71
2022/01/08 12:40:38;;;;;;;24.75;8.75;;;20.00;51.70;;;;;;1042594;28;20028;-71
2022/01/08 12:41:21;;;;;;;23.70;8.32;;;20.00;51.60;;;;;;1042475;28;20029;-71
2022/01/08 12:42:19;;;;;;;19.42;8.65;;;20.00;51.60;;;;;;1042571;28;20029;-71
2022/01/08 12:42:50;;;;;;;20.13;7.50;;;20.00;51.50;;;;;;1042440;28;20017;-71
2022/01/08 12:43:23;;;;;;;21.40;6.75;;;20.00;51.50;;;;;;1042462;28;20024;-71
2022/01/08 12:43:53;;;;;;;19.85;8.85;;;20.00;51.50;;;;;;1042676;28;20035;-71
2022/01/08 12:44:26;;;;;;;21.75;9.38;;;20.00;51.60;;;;;;1042693;28;20025;-71
2022/01/08 12:45:08;;;;;;;24.13;8.95;;;20.00;51.60;;;;;;1042318;28;20450;-70
2022/01/08 12:45:41;;;;;;;21.90;8.50;;;19.90;51.60;;;;;;1042586;28;20025;-70
2022/01/08 12:46:14;;;;;;;24.23;8.05;;;20.00;51.60;;;;;;1042756;28;20029;-71
2022/01/08 12:46:45;;;;;;;21.17;8.18;;;19.90;51.60;;;;;;1042682;28;20021;-71
2022/01/08 12:47:56;;;;;;;18.73;9.05;;;19.90;51.60;;;;;;1038406;28;20026;-71
2022/01/08 12:48:27;;;;;;;21.88;7.93;;;19.90;51.70;;;;;;1034410;28;20022;-71
2022/01/08 12:49:03;;;;;;;24.85;9.77;;;19.90;51.80;;;;;;1035748;28;20026;-71
2022/01/08 12:49:34;;;;;;;22.80;9.05;;;19.90;51.80;;;;;;1038228;28;20049;-73
2022/01/08 12:50:19;;;;;;;22.40;9.93;;;19.80;51.80;;;;;;1038479;28;20030;-72
2022/01/08 12:50:49;;;;;;;19.25;9.00;;;19.80;51.90;;;;;;1038599;28;20045;-71
2022/01/08 12:51:24;;;;;;;27.10;9.07;;;19.80;51.90;;;;;;1037748;28;20122;-71
2022/01/08 12:51:57;;;;;;;21.02;8.77;;;19.80;51.80;;;;;;1043288;28;20460;-71
2022/01/08 12:52:28;;;;;;;26.95;9.50;;;19.80;51.80;;;;;;1043189;28;20120;-71
2022/01/08 12:53:07;;;;;;;20.98;8.82;;;19.80;51.80;;;;;;1048003;28;20529;-72
2022/01/08 12:53:38;;;;;;;29.45;9.40;;;19.80;52.30;;;;;;1048188;28;20021;-73
2022/01/08 12:54:09;;;;;;;24.45;9.63;;;19.80;51.80;;;;;;1048524;28;20033;-73
2022/01/08 12:54:45;;;;;;;24.75;9.90;;;19.70;51.80;;;;;;1046407;28;20025;-73
2022/01/08 12:55:15;;;;;;;22.08;10.07;;;19.70;51.80;;;;;;1043608;28;20021;-72
2022/01/08 12:55:55;;;;;;;24.88;10.60;;;19.80;51.80;;;;;;1043216;28;20018;-72
2022/01/08 12:56:26;;;;;;;20.08;8.48;;;19.80;51.80;;;;;;1043246;28;20057;-72
2022/01/08 12:56:58;;;;;;;27.90;10.15;;;19.80;51.80;;;;;;1043293;28;20021;-72
2022/01/08 12:57:29;;;;;;;26.27;10.27;;;19.80;51.80;;;;;;1043024;28;20013;-73
2022/01/08 12:58:01;;;;;;;24.00;9.88;;;19.80;51.80;;;;;;1043221;28;20093;-73
2022/01/08 12:58:36;;;;;;;25.65;9.10;;;19.80;51.70;;;;;;1043316;28;20018;-73
2022/01/08 12:59:08;;;;;;;29.92;10.25;;;19.70;51.60;;;;;;1043263;28;20022;-70
2022/01/08 12:59:39;;;;;;;30.38;11.00;;;19.80;51.70;;;;;;1042905;28;20617;-71
2022/01/08 13:00:10;;;;;;;24.80;10.00;;;19.80;51.70;;;;;;1043258;28;20017;-71
2022/01/08 13:00:57;;;;;;;33.13;10.00;;;19.80;51.80;;;;;;1043234;28;20057;-71
2022/01/08 13:01:28;;;;;;;32.58;10.65;;;19.80;51.80;;;;;;1043329;28;20025;-72
2022/01/08 13:02:00;;;;;;;25.70;9.50;;;19.80;51.70;;;;;;1043166;28;20048;-71
2022/01/08 13:02:30;;;;;;;27.88;9.65;;;19.80;51.70;;;;;;1043240;28;20028;-71
2022/01/08 13:53:05;;;;;;;25.53;6.37;;;19.80;51.70;;;;;;104870032;28;20640;-72
2022/01/08 14:43:09;;;;;;;11.37;3.67;;;20.30;49.50;;;;;;104687707;28;20079;-71
2022/01/08 15:33:09;;;;;;;7.07;2.87;;;20.30;49.00;;;;;;104192530;22;20049;-75
2022/01/08 16:23:10;;;;;;;5.25;2.50;;;20.20;48.70;;;;;;104032909;28;20492;-77
2022/01/08 17:13:11;;;;;;;7.03;2.00;;;20.40;48.40;;;;;;104034873;28;20088;-76
2022/01/08 18:03:12;;;;;;;9.90;2.45;;;21.10;48.10;;;;;;104113456;28;20037;-74
2022/01/08 18:53:13;;;;;;;6.88;1.60;;;20.60;49.00;;;;;;104163764;28;20057;-76
2022/01/08 19:43:14;;;;;;;9.60;3.47;;;21.20;47.40;;;;;;104149637;28;20039;-77
2022/01/08 20:33:14;;;;;;;6.38;3.35;;;20.30;49.50;;;;;;104158791;28;20442;-77
2022/01/08 21:23:15;;;;;;;15.20;2.42;;;20.90;48.70;;;;;;104123331;28;20254;-77
2022/01/08 22:13:16;;;;;;;10.70;2.63;;;20.00;51.10;;;;;;104213054;28;20072;-79
2022/01/08 23:03:17;;;;;;;4.57;2.05;;;19.40;52.10;;;;;;104128542;28;20037;-78
2022/01/08 23:53:17;;;;;;;7.97;2.47;;;19.10;53.20;;;;;;104157954;28;20037;-79
